Shell Fueler — WZW7217 — position and weather

sailwx.info

Track history (hours):
 
Tides and Currents Weather Stations Pressure Air Temp Water Temp Dewpoint Dewpoint Depression Visibility Wind Speed Wind Dir Waves Ship Positions

Shell Fueler

Owner: JOHN W STONE OIL DIST .LLC, GRETNA, LA. More information available from US FCC via Universal Licensing System and Coast Guard Vessel Documentation Center.

Last reported at 2016-May-03 23:31 UTC. Time now 2016-May-03 23:56 UTC.
Position N 29°56' W 090°11'.

Length 21 m; draft 2.5 m.

Type: Towing. MMSI: 366954210.

Date/timePositionNaut miles runAvg speedWind from/ knotsBaromVisibWave heightAir tempDewpointWater temp
2016-May-03 23:31N 29°56' W 090°11'4 4.3
2016-May-03 22:33N 29°55' W 090°06'2 2.4
2016-May-03 21:33N 29°56' W 090°04'0 0.0
2016-May-03 20:33N 29°56' W 090°04'0 0.0
2016-May-03 19:33N 29°56' W 090°04'0 0.0
2016-May-03 18:33N 29°56' W 090°04'0 0.2
2016-May-03 17:33N 29°55' W 090°04'0 0.1
2016-May-03 16:33N 29°55' W 090°04'0 0.0
2016-May-03 15:33N 29°55' W 090°04'0 0.0
2016-May-03 14:33N 29°55' W 090°04'0 0.0
2016-May-03 13:33N 29°55' W 090°04'0 0.0
2016-May-03 12:33N 29°55' W 090°04'0 0.0
2016-May-03 11:33N 29°55' W 090°04'0 0.1
2016-May-03 10:33N 29°55' W 090°04'0 0.2
2016-May-03 09:33N 29°55' W 090°04'0 0.2
2016-May-03 08:33N 29°55' W 090°04'0 0.0
2016-May-03 07:33N 29°55' W 090°04'0 0.1
2016-May-03 06:33N 29°56' W 090°04'0 0.1
2016-May-03 05:33N 29°55' W 090°04'0 0.0
2016-May-03 04:33N 29°55' W 090°04'0 0.0
2016-May-03 03:33N 29°55' W 090°04'0 0.2
2016-May-03 02:33N 29°55' W 090°04'1 0.9
2016-May-03 01:33N 29°56' W 090°03'3 2.7
2016-May-03 00:33N 29°56' W 090°00'2 2.1
2016-May-02 23:33N 29°55' W 089°58'5 4.7
2016-May-02 22:33N 29°51' W 090°01'2 1.8
2016-May-02 21:33N 29°50' W 090°03'0 0.0
2016-May-02 17:24N 29°50' W 090°03'0 0.0
2016-May-02 16:33N 29°50' W 090°03'0 0.0
2016-May-02 15:32N 29°50' W 090°03'0 0.0
2016-May-02 14:32N 29°50' W 090°03'0 0.0
2016-May-02 13:27N 29°50' W 090°03'0 0.0
2016-May-02 12:33N 29°50' W 090°03'0 0.0
2016-May-02 11:33N 29°50' W 090°03'0 0.0
2016-May-02 10:32N 29°50' W 090°03'0 0.0
2016-May-02 09:33N 29°50' W 090°03'0 0.0
2016-May-02 08:31N 29°50' W 090°03'0 0.0
2016-May-02 07:33N 29°50' W 090°03'0 0.0
2016-May-02 06:33N 29°50' W 090°03'0 0.0
2016-May-02 05:33N 29°50' W 090°03'0 0.0
2016-May-02 04:33N 29°50' W 090°03'0 0.0
2016-May-02 03:33N 29°50' W 090°03'0 0.0
2016-May-02 02:25N 29°50' W 090°03'0 0.0
2016-May-02 01:33N 29°50' W 090°03'2 2.2
2016-May-02 00:33N 29°51' W 090°01'4 4.4
2016-May-01 23:33N 29°55' W 089°58'3 3.4
2016-May-01 22:33N 29°57' W 090°01'2 2.4
2016-May-01 21:33N 29°56' W 090°04'  
2016-Apr-27 15:33N 29°56' W 090°04'0 0.0
2016-Apr-27 14:33N 29°56' W 090°04'  
Track history (hours):
 
Tides and Currents Weather Stations Pressure Air Temp Water Temp Dewpoint Dewpoint Depression Visibility Wind Speed Wind Dir Waves Ship Positions

Shell Fueler

Owner: JOHN W STONE OIL DIST .LLC, GRETNA, LA. More information available from US FCC via Universal Licensing System and Coast Guard Vessel Documentation Center.

Last reported at 2016-May-03 23:31 UTC. Time now 2016-May-03 23:56 UTC.
Position N 29°56' W 090°11'.

Length 21 m; draft 2.5 m.

Type: Towing. MMSI: 366954210.

Date/timePositionNaut miles runAvg speedWind from/ knotsBaromVisibWave heightAir tempDewpointWater temp
2016-May-03 23:31N 29°56' W 090°11'4 4.3
2016-May-03 22:33N 29°55' W 090°06'2 2.4
2016-May-03 21:33N 29°56' W 090°04'0 0.0
2016-May-03 20:33N 29°56' W 090°04'0 0.0
2016-May-03 19:33N 29°56' W 090°04'0 0.0
2016-May-03 18:33N 29°56' W 090°04'0 0.2
2016-May-03 17:33N 29°55' W 090°04'0 0.1
2016-May-03 16:33N 29°55' W 090°04'0 0.0
2016-May-03 15:33N 29°55' W 090°04'0 0.0
2016-May-03 14:33N 29°55' W 090°04'0 0.0
2016-May-03 13:33N 29°55' W 090°04'0 0.0
2016-May-03 12:33N 29°55' W 090°04'0 0.0
2016-May-03 11:33N 29°55' W 090°04'0 0.1
2016-May-03 10:33N 29°55' W 090°04'0 0.2
2016-May-03 09:33N 29°55' W 090°04'0 0.2
2016-May-03 08:33N 29°55' W 090°04'0 0.0
2016-May-03 07:33N 29°55' W 090°04'0 0.1
2016-May-03 06:33N 29°56' W 090°04'0 0.1
2016-May-03 05:33N 29°55' W 090°04'0 0.0
2016-May-03 04:33N 29°55' W 090°04'0 0.0
2016-May-03 03:33N 29°55' W 090°04'0 0.2
2016-May-03 02:33N 29°55' W 090°04'1 0.9
2016-May-03 01:33N 29°56' W 090°03'3 2.7
2016-May-03 00:33N 29°56' W 090°00'2 2.1
2016-May-02 23:33N 29°55' W 089°58'5 4.7
2016-May-02 22:33N 29°51' W 090°01'2 1.8
2016-May-02 21:33N 29°50' W 090°03'0 0.0
2016-May-02 17:24N 29°50' W 090°03'0 0.0
2016-May-02 16:33N 29°50' W 090°03'0 0.0
2016-May-02 15:32N 29°50' W 090°03'0 0.0
2016-May-02 14:32N 29°50' W 090°03'0 0.0
2016-May-02 13:27N 29°50' W 090°03'0 0.0
2016-May-02 12:33N 29°50' W 090°03'0 0.0
2016-May-02 11:33N 29°50' W 090°03'0 0.0
2016-May-02 10:32N 29°50' W 090°03'0 0.0
2016-May-02 09:33N 29°50' W 090°03'0 0.0
2016-May-02 08:31N 29°50' W 090°03'0 0.0
2016-May-02 07:33N 29°50' W 090°03'0 0.0
2016-May-02 06:33N 29°50' W 090°03'0 0.0
2016-May-02 05:33N 29°50' W 090°03'0 0.0
2016-May-02 04:33N 29°50' W 090°03'0 0.0
2016-May-02 03:33N 29°50' W 090°03'0 0.0
2016-May-02 02:25N 29°50' W 090°03'0 0.0
2016-May-02 01:33N 29°50' W 090°03'2 2.2
2016-May-02 00:33N 29°51' W 090°01'4 4.4
2016-May-01 23:33N 29°55' W 089°58'3 3.4
2016-May-01 22:33N 29°57' W 090°01'2 2.4
2016-May-01 21:33N 29°56' W 090°04'  
2016-Apr-27 15:33N 29°56' W 090°04'0 0.0
2016-Apr-27 14:33N 29°56' W 090°04'  

Dump ship's entire track history